Terminal Aerodrome Forecast
Issued by NWS Twin Cities, MN

Home | Current Version | Previous Version | Text Only | Print | Product List | Glossary On
Versions: 1 2 3 4 5 6 7 8 9 10 11 12 13 14 15 16
000
FTUS43 KMPX 292330
TAFSTC
TAF
KSTC 292330Z 3000/3024 30012KT P6SM FEW200
     FM300700 23002KT P6SM SKC
      TEMPO 3009/3012 5SM BR
     FM301700 19006KT P6SM FEW250
     FM302100 16008KT P6SM SCT250=

USA.gov is the U.S. government's official web portal to all federal, state and local government web resources and services.